createdAt,value
2018-09-04T00:01:54.580Z,26.30
2018-09-04T00:04:22.706Z,26.13
2018-09-04T00:06:50.902Z,24.47
2018-09-04T00:09:19.022Z,22.23
2018-09-04T00:11:47.165Z,25.93
2018-09-04T00:14:15.282Z,26.27
2018-09-04T00:16:43.411Z,26.27
2018-09-04T00:19:11.544Z,24.27
2018-09-04T00:21:39.710Z,26.73
2018-09-04T00:24:07.844Z,25.57
2018-09-04T00:26:35.961Z,27.00
2018-09-04T00:29:04.093Z,25.87
2018-09-04T00:31:32.210Z,26.03
2018-09-04T00:34:00.350Z,26.23
2018-09-04T00:36:28.508Z,26.70
2018-09-04T00:38:56.631Z,26.57
2018-09-04T00:41:24.777Z,26.97
2018-09-04T00:43:52.905Z,28.07
2018-09-04T00:46:21.034Z,28.77
2018-09-04T00:48:49.178Z,29.27
2018-09-04T00:51:17.309Z,25.63
2018-09-04T00:53:45.474Z,27.10
2018-09-04T00:56:13.611Z,28.53
2018-09-04T00:58:41.767Z,28.97
2018-09-04T01:01:09.889Z,29.67
2018-09-04T01:03:38.033Z,27.83
2018-09-04T01:06:06.159Z,26.80
2018-09-04T01:08:34.298Z,27.60
2018-09-04T01:11:02.423Z,26.77
2018-09-04T01:13:30.557Z,29.17
2018-09-04T01:15:58.757Z,30.77
2018-09-04T01:18:27.122Z,29.50
2018-09-04T01:20:55.286Z,29.13
2018-09-04T01:23:23.428Z,29.47
2018-09-04T01:25:51.578Z,30.67
2018-09-04T01:28:19.709Z,28.40
2018-09-04T01:30:54.382Z,29.20
2018-09-04T01:33:22.501Z,28.97
2018-09-04T01:35:50.630Z,28.17
2018-09-04T01:38:18.773Z,29.97
2018-09-04T01:40:46.900Z,29.07
2018-09-04T01:43:15.022Z,30.87
2018-09-04T01:45:43.349Z,31.07
2018-09-04T01:48:11.889Z,30.67
2018-09-04T01:50:40.018Z,29.53
2018-09-04T01:53:08.155Z,30.10
2018-09-04T01:55:36.293Z,29.33
2018-09-04T01:58:04.653Z,28.30
2018-09-04T02:00:32.781Z,26.87
2018-09-04T02:03:00.937Z,27.47
2018-09-04T02:05:29.054Z,28.47
2018-09-04T02:07:57.193Z,31.17
2018-09-04T02:10:25.343Z,31.17
2018-09-04T02:12:53.518Z,31.87
2018-09-04T02:15:21.659Z,30.13
2018-09-04T02:17:49.777Z,32.07
2018-09-04T02:20:17.906Z,29.97
2018-09-04T02:22:46.105Z,27.27
2018-09-04T02:25:14.251Z,27.47
2018-09-04T02:27:42.406Z,27.23
2018-09-04T02:30:10.543Z,27.93
2018-09-04T02:32:38.655Z,29.17
2018-09-04T02:35:07.283Z,27.07
2018-09-04T02:37:35.397Z,25.10
2018-09-04T02:40:03.538Z,31.77
2018-09-04T02:42:31.654Z,28.17
2018-09-04T02:44:59.798Z,29.37
2018-09-04T02:47:27.931Z,30.37
2018-09-04T02:49:56.062Z,30.40
2018-09-04T02:52:24.190Z,31.43
2018-09-04T02:54:52.334Z,28.90
2018-09-04T02:57:20.465Z,30.00
2018-09-04T02:59:48.643Z,31.30
2018-09-04T03:02:16.766Z,30.27
2018-09-04T03:04:44.894Z,30.50
2018-09-04T03:07:13.029Z,33.83
2018-09-04T03:09:41.161Z,33.00
2018-09-04T03:12:09.277Z,32.90
2018-09-04T03:14:37.429Z,32.03
2018-09-04T03:17:05.549Z,36.00
2018-09-04T03:19:33.676Z,40.53
2018-09-04T03:22:01.840Z,42.70
2018-09-04T03:24:30.111Z,37.87
2018-09-04T03:26:58.215Z,39.17
2018-09-04T03:29:26.345Z,40.00
2018-09-04T03:31:54.466Z,36.27
2018-09-04T03:34:22.618Z,38.67
2018-09-04T03:36:50.741Z,38.27
2018-09-04T03:39:18.869Z,40.83
2018-09-04T03:41:47.116Z,43.03
2018-09-04T03:44:15.401Z,40.00
2018-09-04T03:46:43.469Z,40.33
2018-09-04T03:49:11.591Z,38.93
2018-09-04T03:51:39.725Z,38.53
2018-09-04T03:54:07.876Z,41.73
2018-09-04T03:56:35.989Z,40.50
2018-09-04T03:59:04.145Z,39.50
2018-09-04T04:01:32.330Z,37.77
2018-09-04T04:04:00.405Z,36.40
2018-09-04T04:06:28.534Z,35.60
2018-09-04T04:08:56.662Z,34.63
2018-09-04T04:11:24.794Z,35.50
2018-09-04T04:13:52.925Z,40.40
2018-09-04T04:16:21.050Z,35.77
2018-09-04T04:18:49.225Z,38.87
2018-09-04T04:21:17.438Z,41.43
2018-09-04T04:23:45.608Z,38.00
2018-09-04T04:26:13.722Z,37.83
2018-09-04T04:28:42.049Z,37.10
2018-09-04T04:31:10.206Z,41.17
2018-09-04T04:33:38.385Z,36.80
2018-09-04T04:36:06.542Z,39.70
2018-09-04T04:38:34.685Z,40.57
2018-09-04T04:41:02.892Z,37.37
2018-09-04T04:43:31.055Z,35.87
2018-09-04T04:45:59.181Z,37.17
2018-09-04T04:48:27.306Z,36.17
2018-09-04T04:50:55.449Z,40.27
2018-09-04T04:53:23.574Z,38.40
2018-09-04T04:55:51.822Z,39.10
2018-09-04T04:58:19.941Z,40.23
2018-09-04T05:00:48.126Z,40.60
2018-09-04T05:03:16.250Z,40.23
2018-09-04T05:05:44.403Z,39.27
2018-09-04T05:08:12.529Z,39.13
2018-09-04T05:10:40.697Z,40.77
2018-09-04T05:13:08.898Z,40.40
2018-09-04T05:15:37.047Z,38.83
2018-09-04T05:18:05.458Z,41.23
2018-09-04T05:20:33.588Z,39.03
2018-09-04T05:23:01.941Z,36.63
2018-09-04T05:25:30.092Z,38.97
2018-09-04T05:27:58.282Z,39.73
2018-09-04T05:30:26.450Z,39.07
2018-09-04T05:33:00.025Z,39.63
2018-09-04T05:35:32.023Z,38.67
2018-09-04T05:38:00.286Z,40.37
2018-09-04T05:40:28.422Z,41.47
2018-09-04T05:42:58.829Z,39.60
2018-09-04T05:45:28.366Z,40.97
2018-09-04T05:48:03.930Z,42.07
2018-09-04T05:50:32.262Z,39.57
2018-09-04T05:53:00.469Z,40.57
2018-09-04T05:55:28.721Z,38.87
2018-09-04T05:57:56.975Z,40.57
2018-09-04T06:00:29.474Z,41.83
2018-09-04T06:02:57.587Z,39.47
2018-09-04T06:05:25.770Z,42.13
2018-09-04T06:07:54.078Z,40.17
2018-09-04T06:10:22.221Z,40.00
2018-09-04T06:12:50.542Z,40.27
2018-09-04T06:15:18.912Z,42.73
2018-09-04T06:17:47.042Z,41.17
2018-09-04T06:20:15.193Z,44.33
2018-09-04T06:22:43.328Z,43.20
2018-09-04T06:25:11.466Z,44.23
2018-09-04T06:27:39.654Z,43.67
2018-09-04T06:30:08.057Z,46.17
2018-09-04T06:32:36.368Z,43.80
2018-09-04T06:35:04.767Z,44.33
2018-09-04T06:37:32.925Z,46.03
2018-09-04T06:40:01.069Z,45.83
2018-09-04T06:42:29.246Z,42.60
2018-09-04T06:44:57.378Z,43.33
2018-09-04T06:47:25.513Z,41.97
2018-09-04T06:49:53.681Z,45.27
2018-09-04T06:52:21.830Z,43.47
2018-09-04T06:54:49.974Z,45.33
2018-09-04T06:57:18.118Z,45.17
2018-09-04T06:59:46.332Z,41.30
2018-09-04T07:02:14.471Z,43.87
2018-09-04T07:04:42.603Z,46.17
2018-09-04T07:07:10.802Z,44.43
2018-09-04T07:09:38.967Z,47.60
2018-09-04T07:12:07.145Z,44.90
2018-09-04T07:14:35.269Z,51.53
2018-09-04T07:17:03.495Z,48.03
2018-09-04T07:19:31.587Z,44.80
2018-09-04T07:21:59.713Z,46.67
2018-09-04T07:24:27.859Z,48.17
2018-09-04T07:26:56.037Z,43.33
2018-09-04T07:29:24.168Z,45.57
2018-09-04T07:31:52.353Z,38.83
2018-09-04T07:34:20.473Z,49.10
2018-09-04T07:36:48.610Z,49.63
2018-09-04T07:39:16.739Z,43.23
2018-09-04T07:41:44.878Z,51.20
2018-09-04T07:44:12.993Z,42.60
2018-09-04T07:46:41.143Z,46.00
2018-09-04T07:49:09.302Z,47.37
2018-09-04T07:51:37.445Z,51.77
2018-09-04T07:54:05.669Z,49.57
2018-09-04T07:56:33.807Z,50.80
2018-09-04T07:59:01.970Z,47.00
2018-09-04T08:01:30.102Z,39.53
2018-09-04T08:03:58.251Z,50.27
2018-09-04T08:06:26.390Z,45.70
2018-09-04T08:08:54.529Z,42.23
2018-09-04T08:11:22.653Z,47.00
2018-09-04T08:13:50.825Z,46.03
2018-09-04T08:16:18.997Z,44.50
2018-09-04T08:18:47.134Z,40.27
2018-09-04T08:21:15.266Z,44.33
2018-09-04T08:23:43.440Z,44.63
2018-09-04T08:26:11.609Z,41.13
2018-09-04T08:28:39.765Z,41.20
2018-09-04T08:31:07.972Z,40.63
2018-09-04T08:33:36.111Z,39.10
2018-09-04T08:36:04.233Z,38.60
2018-09-04T08:38:35.238Z,36.20
2018-09-04T08:41:03.358Z,37.77
2018-09-04T08:43:31.482Z,36.90
2018-09-04T08:45:59.610Z,30.73
2018-09-04T08:48:28.335Z,32.63
2018-09-04T08:50:56.459Z,34.20
2018-09-04T08:53:24.633Z,32.37
2018-09-04T08:55:52.738Z,28.83
2018-09-04T08:58:20.923Z,27.60
2018-09-04T09:00:49.055Z,28.67
2018-09-04T09:03:17.201Z,30.77
2018-09-04T09:05:45.322Z,28.33
2018-09-04T09:08:13.442Z,24.37
2018-09-04T09:10:41.622Z,24.67
2018-09-04T09:13:09.822Z,27.23
2018-09-04T09:15:37.975Z,30.43
2018-09-04T09:18:06.118Z,26.13
2018-09-04T09:20:34.265Z,28.23
2018-09-04T09:23:02.421Z,27.10
2018-09-04T09:25:30.568Z,31.67
2018-09-04T09:27:58.755Z,27.70
2018-09-04T09:30:26.870Z,24.43
2018-09-04T09:32:55.073Z,24.80
2018-09-04T09:35:23.218Z,23.73
2018-09-04T09:37:51.377Z,23.20
2018-09-04T09:40:19.511Z,23.77
2018-09-04T09:42:47.661Z,23.70
2018-09-04T09:45:15.778Z,22.27
2018-09-04T09:47:49.795Z,22.17
2018-09-04T09:50:18.807Z,22.17
2018-09-04T09:52:47.142Z,22.30
2018-09-04T09:55:15.322Z,23.57
2018-09-04T09:57:43.519Z,22.57
2018-09-04T10:00:17.164Z,19.57
2018-09-04T10:02:55.574Z,20.40
2018-09-04T10:05:23.974Z,20.27
2018-09-04T10:07:52.408Z,18.10
2018-09-04T10:10:20.526Z,18.00
2018-09-04T10:12:48.598Z,17.70
2018-09-04T10:15:16.732Z,20.03
2018-09-04T10:17:44.868Z,16.20
2018-09-04T10:20:13.018Z,16.57
2018-09-04T10:22:41.187Z,12.80
2018-09-04T10:25:09.704Z,12.17
2018-09-04T10:27:38.061Z,12.67
2018-09-04T10:30:06.891Z,12.97
2018-09-04T10:32:35.071Z,12.80
2018-09-04T10:35:03.221Z,11.83
2018-09-04T10:37:31.357Z,10.67
2018-09-04T10:40:05.052Z,10.53
2018-09-04T10:42:33.178Z,10.03
2018-09-04T10:45:01.326Z,8.43
2018-09-04T10:47:29.559Z,9.53
2018-09-04T10:49:57.858Z,6.67
2018-09-04T10:52:26.074Z,8.13
2018-09-04T10:54:54.227Z,7.10
2018-09-04T10:57:22.540Z,6.73
2018-09-04T10:59:50.707Z,7.90
2018-09-04T11:02:19.634Z,8.57
2018-09-04T11:04:48.708Z,9.13
2018-09-04T11:07:16.932Z,10.40
2018-09-04T11:09:45.151Z,10.33
2018-09-04T11:12:13.235Z,9.23
2018-09-04T11:14:41.374Z,9.50
2018-09-04T11:17:09.883Z,10.43
2018-09-04T11:19:38.014Z,10.90
2018-09-04T11:22:06.173Z,10.07
2018-09-04T11:24:35.107Z,11.00
2018-09-04T11:27:03.230Z,11.30
2018-09-04T11:29:31.419Z,11.43
2018-09-04T11:31:59.562Z,10.50
2018-09-04T11:34:27.755Z,10.80
2018-09-04T11:36:55.924Z,10.07
2018-09-04T11:39:24.074Z,10.53
2018-09-04T11:41:52.297Z,10.20
2018-09-04T11:44:20.446Z,10.57
2018-09-04T11:46:48.657Z,10.73
2018-09-04T11:49:16.777Z,10.87
2018-09-04T11:51:44.937Z,10.37
2018-09-04T11:54:13.122Z,10.43
2018-09-04T11:56:41.364Z,10.30
2018-09-04T11:59:09.777Z,10.97
2018-09-04T12:01:40.695Z,10.93
2018-09-04T12:04:09.038Z,9.87
2018-09-04T12:06:37.287Z,10.00
2018-09-04T12:09:06.497Z,9.40
2018-09-04T12:11:34.716Z,10.70
2018-09-04T12:14:02.866Z,9.50
2018-09-04T12:16:31.010Z,9.43
2018-09-04T12:18:59.213Z,9.47
2018-09-04T12:21:27.370Z,9.00
2018-09-04T12:23:55.606Z,8.63
2018-09-04T12:26:23.764Z,9.40
2018-09-04T12:28:51.930Z,8.90
2018-09-04T12:31:20.075Z,9.10
2018-09-04T12:33:48.284Z,8.93
2018-09-04T12:36:16.409Z,10.03
2018-09-04T12:38:44.533Z,9.07
2018-09-04T12:41:15.672Z,9.20
2018-09-04T12:43:43.833Z,8.27
2018-09-04T12:46:12.025Z,8.37
2018-09-04T12:48:44.411Z,8.83
2018-09-04T12:51:12.563Z,8.80
2018-09-04T12:53:40.709Z,8.87
2018-09-04T12:56:08.874Z,8.60
2018-09-04T12:58:37.062Z,8.90
2018-09-04T13:01:05.751Z,8.97
2018-09-04T13:03:33.899Z,8.07
2018-09-04T13:06:02.024Z,8.87
2018-09-04T13:08:31.850Z,8.47
2018-09-04T13:11:00.030Z,8.43
2018-09-04T13:13:28.590Z,9.10
2018-09-04T13:15:58.393Z,8.83
2018-09-04T13:18:27.375Z,9.17
2018-09-04T13:21:00.981Z,9.10
2018-09-04T13:23:29.430Z,9.87
2018-09-04T13:25:57.694Z,9.00
2018-09-04T13:28:25.862Z,9.13
2018-09-04T13:30:54.020Z,8.70
2018-09-04T13:33:22.144Z,9.17
2018-09-04T13:35:50.370Z,9.40
2018-09-04T13:38:18.519Z,9.13
2018-09-04T13:40:46.662Z,8.63
2018-09-04T13:43:14.857Z,9.07
2018-09-04T13:45:43.022Z,8.40
2018-09-04T13:48:11.175Z,9.20
2018-09-04T13:50:39.342Z,9.10
2018-09-04T13:53:07.525Z,8.37
2018-09-04T13:55:41.108Z,9.33
2018-09-04T13:58:09.240Z,9.23
2018-09-04T14:00:37.382Z,9.33
2018-09-04T14:03:05.505Z,8.97
2018-09-04T14:05:33.651Z,9.40
2018-09-04T14:08:01.790Z,8.63
2018-09-04T14:10:29.974Z,9.13
2018-09-04T14:12:58.142Z,9.50
2018-09-04T14:15:26.295Z,9.53
2018-09-04T14:17:54.466Z,8.40
2018-09-04T14:20:22.613Z,9.60
2018-09-04T14:22:50.777Z,9.33
2018-09-04T14:25:18.951Z,9.37
2018-09-04T14:27:51.014Z,9.30
2018-09-04T14:30:19.255Z,9.27
2018-09-04T14:32:47.568Z,9.23
2018-09-04T14:35:15.781Z,9.13
2018-09-04T14:37:44.022Z,9.60
2018-09-04T14:40:12.448Z,9.37
2018-09-04T14:42:40.645Z,9.50
2018-09-04T14:45:08.738Z,9.87
2018-09-04T14:47:36.893Z,9.37
2018-09-04T14:50:05.342Z,9.33
2018-09-04T14:52:33.498Z,9.83
2018-09-04T14:55:01.691Z,9.93
2018-09-04T14:57:29.851Z,9.90
2018-09-04T14:59:58.161Z,10.27
2018-09-04T15:02:26.274Z,10.53
2018-09-04T15:04:54.474Z,10.30
2018-09-04T15:07:23.069Z,10.10
2018-09-04T15:09:51.245Z,9.27
2018-09-04T15:12:19.377Z,9.80
2018-09-04T15:14:47.514Z,10.53
2018-09-04T15:17:15.756Z,10.07
2018-09-04T15:19:44.017Z,9.67
2018-09-04T15:22:12.174Z,9.67
2018-09-04T15:24:40.330Z,10.27
2018-09-04T15:27:08.537Z,9.90
2018-09-04T15:29:36.685Z,10.90
2018-09-04T15:32:04.877Z,11.60
2018-09-04T15:34:33.087Z,10.77
2018-09-04T15:37:01.324Z,11.23
2018-09-04T15:39:29.446Z,11.13
2018-09-04T15:41:57.598Z,10.70
2018-09-04T15:44:25.746Z,11.03
2018-09-04T15:46:53.910Z,10.33
2018-09-04T15:49:27.642Z,10.70
2018-09-04T15:51:55.765Z,12.10
2018-09-04T15:54:23.921Z,12.90
2018-09-04T15:56:52.092Z,12.87
2018-09-04T15:59:21.353Z,13.37
2018-09-04T16:01:49.479Z,12.97
2018-09-04T16:04:17.676Z,12.93
2018-09-04T16:07:17.242Z,12.57
2018-09-04T16:09:45.608Z,12.57
2018-09-04T16:12:13.675Z,12.53
2018-09-04T16:14:41.831Z,13.27
2018-09-04T16:17:09.996Z,13.80
2018-09-04T16:19:38.113Z,12.73
2018-09-04T16:22:06.301Z,13.43
2018-09-04T16:24:34.503Z,13.93
2018-09-04T16:27:02.634Z,13.63
2018-09-04T16:29:30.858Z,14.50
2018-09-04T16:31:59.006Z,14.30
2018-09-04T16:34:27.204Z,13.93
2018-09-04T16:36:55.555Z,16.23
2018-09-04T16:39:23.779Z,14.10
2018-09-04T16:41:51.892Z,14.90
2018-09-04T16:44:20.015Z,13.43
2018-09-04T16:46:48.165Z,12.33
2018-09-04T16:49:16.291Z,11.67
2018-09-04T16:51:44.415Z,11.03
2018-09-04T16:54:12.562Z,10.10
2018-09-04T16:56:40.698Z,10.00
2018-09-04T16:59:08.847Z,10.50
2018-09-04T17:01:36.966Z,11.17
2018-09-04T17:04:05.225Z,10.80
2018-09-04T17:06:33.373Z,10.77
2018-09-04T17:09:01.518Z,10.70
2018-09-04T17:11:29.665Z,10.90
2018-09-04T17:13:57.836Z,10.70
2018-09-04T17:16:25.974Z,10.63
2018-09-04T17:18:54.135Z,11.17
2018-09-04T17:21:22.274Z,11.30
2018-09-04T17:23:50.422Z,11.87
2018-09-04T17:26:18.588Z,11.20
2018-09-04T17:28:46.730Z,11.27
2018-09-04T17:31:14.845Z,11.17
2018-09-04T17:33:42.978Z,11.73
2018-09-04T17:36:11.120Z,11.60
2018-09-04T17:38:39.248Z,11.53
2018-09-04T17:41:07.412Z,11.30
2018-09-04T17:43:35.557Z,11.53
2018-09-04T17:46:03.722Z,11.23
2018-09-04T17:48:31.871Z,11.47
2018-09-04T17:51:00.039Z,11.90
2018-09-04T17:53:28.185Z,12.00
2018-09-04T17:55:56.318Z,11.30
2018-09-04T17:58:24.457Z,11.70
2018-09-04T18:00:52.608Z,11.03
2018-09-04T18:03:21.018Z,11.47
2018-09-04T18:05:49.405Z,11.77
2018-09-04T18:08:17.672Z,11.30
2018-09-04T18:10:45.817Z,11.77
2018-09-04T18:13:13.955Z,11.73
2018-09-04T18:15:42.106Z,12.60
2018-09-04T18:18:10.276Z,11.20
2018-09-04T18:20:38.442Z,11.57
2018-09-04T18:23:06.569Z,12.07
2018-09-04T18:25:34.701Z,11.70
2018-09-04T18:28:02.854Z,12.00
2018-09-04T18:30:31.002Z,12.40
2018-09-04T18:32:59.129Z,12.07
2018-09-04T18:35:27.330Z,11.97
2018-09-04T18:37:55.475Z,12.10
2018-09-04T18:40:23.622Z,12.90
2018-09-04T18:42:51.771Z,12.33
2018-09-04T18:45:31.297Z,11.83
2018-09-04T18:47:59.477Z,10.77
2018-09-04T18:50:28.668Z,11.80
2018-09-04T18:52:57.106Z,12.10
2018-09-04T18:55:25.291Z,13.00
2018-09-04T18:57:53.433Z,12.23
2018-09-04T19:00:21.557Z,12.53
2018-09-04T19:02:50.409Z,12.80
2018-09-04T19:05:18.538Z,13.57
2018-09-04T19:07:46.749Z,13.27
2018-09-04T19:10:14.928Z,14.00
2018-09-04T19:12:43.070Z,15.20
2018-09-04T19:15:11.220Z,14.33
2018-09-04T19:17:39.340Z,14.80
2018-09-04T19:20:07.478Z,15.10
2018-09-04T19:22:46.875Z,15.07
2018-09-04T19:25:15.222Z,14.83
2018-09-04T19:27:43.359Z,14.77
2018-09-04T19:30:11.514Z,15.33
2018-09-04T19:32:39.809Z,14.77
2018-09-04T19:35:07.971Z,13.70
2018-09-04T19:37:36.238Z,14.30
2018-09-04T19:40:04.486Z,14.27
2018-09-04T19:42:32.618Z,14.17
2018-09-04T19:45:00.893Z,15.50
2018-09-04T19:47:29.067Z,14.63
2018-09-04T19:49:57.298Z,15.00
2018-09-04T19:52:25.340Z,15.73
2018-09-04T19:54:53.559Z,15.83
2018-09-04T19:57:21.710Z,15.60
2018-09-04T19:59:49.959Z,16.53
2018-09-04T20:02:18.120Z,15.37
2018-09-04T20:04:46.248Z,15.50
2018-09-04T20:07:14.410Z,15.97
2018-09-04T20:09:42.566Z,15.37
2018-09-04T20:12:10.708Z,16.20
2018-09-04T20:14:38.855Z,16.13
2018-09-04T20:17:07.016Z,15.80
2018-09-04T20:19:35.253Z,15.77
2018-09-04T20:22:03.395Z,16.13
2018-09-04T20:24:31.554Z,15.77
2018-09-04T20:26:59.732Z,16.20
2018-09-04T20:29:27.962Z,15.50
2018-09-04T20:31:56.038Z,16.07
2018-09-04T20:34:24.193Z,16.83
2018-09-04T20:36:52.322Z,16.23
2018-09-04T20:39:20.483Z,15.67
2018-09-04T20:41:48.635Z,16.40
2018-09-04T20:44:16.789Z,16.63
2018-09-04T20:46:44.925Z,16.17
2018-09-04T20:49:13.084Z,16.27
2018-09-04T20:51:41.210Z,15.20
2018-09-04T20:54:09.459Z,16.13
2018-09-04T20:56:37.617Z,16.97
2018-09-04T20:59:17.222Z,16.77
2018-09-04T21:01:56.649Z,15.10
2018-09-04T21:04:36.127Z,15.30
2018-09-04T21:07:03.302Z,15.90
2018-09-04T21:09:39.352Z,16.17
2018-09-04T21:12:08.684Z,16.00
2018-09-04T21:14:36.850Z,17.40
2018-09-04T21:17:05.076Z,16.63
2018-09-04T21:19:33.372Z,16.50
2018-09-04T21:22:01.452Z,16.80
2018-09-04T21:24:29.603Z,16.77
2018-09-04T21:26:57.806Z,16.33
2018-09-04T21:29:25.946Z,15.37
2018-09-04T21:31:54.102Z,15.60
2018-09-04T21:34:22.301Z,15.27
2018-09-04T21:36:50.515Z,16.37
2018-09-04T21:39:18.627Z,15.97
2018-09-04T21:41:46.834Z,15.27
2018-09-04T21:44:14.960Z,15.90
2018-09-04T21:46:43.118Z,15.17
2018-09-04T21:49:11.225Z,15.10
2018-09-04T21:51:39.374Z,15.27
2018-09-04T21:54:07.530Z,15.80
2018-09-04T21:56:35.683Z,14.73
2018-09-04T21:59:03.890Z,15.00
2018-09-04T22:01:32.035Z,16.50
2018-09-04T22:04:00.177Z,16.73
2018-09-04T22:06:28.345Z,15.97
2018-09-04T22:08:56.489Z,15.97
2018-09-04T22:11:24.633Z,16.80
2018-09-04T22:13:52.789Z,15.70
2018-09-04T22:16:20.932Z,16.87
2018-09-04T22:18:49.085Z,15.70
2018-09-04T22:21:17.236Z,16.87
2018-09-04T22:23:45.421Z,16.67
2018-09-04T22:26:13.565Z,14.83
2018-09-04T22:28:41.702Z,16.47
2018-09-04T22:31:09.854Z,15.37
2018-09-04T22:33:38.014Z,16.10
2018-09-04T22:36:07.038Z,17.00
2018-09-04T22:38:35.182Z,16.53
2018-09-04T22:41:03.342Z,17.37
2018-09-04T22:43:31.487Z,16.53
2018-09-04T22:45:59.649Z,17.03
2018-09-04T22:48:27.807Z,16.40
2018-09-04T22:51:01.410Z,17.43
2018-09-04T22:53:29.618Z,15.90
2018-09-04T22:55:57.790Z,16.90
2018-09-04T22:58:25.936Z,16.53
2018-09-04T23:00:54.085Z,17.33
2018-09-04T23:03:22.221Z,17.60
2018-09-04T23:05:54.255Z,15.97
2018-09-04T23:08:22.497Z,17.80
2018-09-04T23:10:50.637Z,18.93
2018-09-04T23:13:18.764Z,18.23
2018-09-04T23:15:46.932Z,17.93
2018-09-04T23:18:15.091Z,17.87
2018-09-04T23:20:43.366Z,18.07
2018-09-04T23:23:11.518Z,18.60
2018-09-04T23:25:39.678Z,18.30
2018-09-04T23:28:07.826Z,19.00
2018-09-04T23:30:35.962Z,18.23
2018-09-04T23:33:04.134Z,18.93
2018-09-04T23:35:32.327Z,19.03
2018-09-04T23:38:00.504Z,19.13
2018-09-04T23:40:28.642Z,20.17
2018-09-04T23:42:56.823Z,19.10
2018-09-04T23:45:24.987Z,19.77
2018-09-04T23:47:53.143Z,21.03
2018-09-04T23:50:21.274Z,19.43
2018-09-04T23:52:49.469Z,20.10
2018-09-04T23:55:17.603Z,19.90
2018-09-04T23:57:45.762Z,21.47
